sensor_id;sensor_type;location;lat;lon;timestamp;P1;durP1;ratioP1;P2;durP2;ratioP2
31808;SDS011;18379;48.208;-1.518;2022-07-29T00:02:50;45.80;;;42.60;;
31808;SDS011;18379;48.208;-1.518;2022-07-29T00:07:51;45.33;;;42.50;;
31808;SDS011;18379;48.208;-1.518;2022-07-29T00:12:52;45.80;;;42.97;;
31808;SDS011;18379;48.208;-1.518;2022-07-29T00:17:52;45.70;;;42.90;;
31808;SDS011;18379;48.208;-1.518;2022-07-29T00:22:53;44.97;;;42.17;;
31808;SDS011;18379;48.208;-1.518;2022-07-29T00:27:54;46.43;;;43.20;;
31808;SDS011;18379;48.208;-1.518;2022-07-29T00:32:55;45.97;;;42.70;;
31808;SDS011;18379;48.208;-1.518;2022-07-29T00:37:55;44.33;;;41.40;;
31808;SDS011;18379;48.208;-1.518;2022-07-29T00:42:56;46.20;;;42.97;;
31808;SDS011;18379;48.208;-1.518;2022-07-29T00:47:57;42.20;;;39.70;;
31808;SDS011;18379;48.208;-1.518;2022-07-29T00:52:58;42.77;;;40.03;;
31808;SDS011;18379;48.208;-1.518;2022-07-29T00:57:59;43.10;;;40.30;;
31808;SDS011;18379;48.208;-1.518;2022-07-29T01:03:00;42.00;;;39.70;;
31808;SDS011;18379;48.208;-1.518;2022-07-29T01:08:01;42.23;;;39.83;;
31808;SDS011;18379;48.208;-1.518;2022-07-29T01:13:02;42.33;;;39.73;;
31808;SDS011;18379;48.208;-1.518;2022-07-29T01:18:11;42.60;;;40.10;;
31808;SDS011;18379;48.208;-1.518;2022-07-29T01:33:42;45.70;;;42.53;;
31808;SDS011;18379;48.208;-1.518;2022-07-29T01:38:54;45.87;;;42.73;;
31808;SDS011;18379;48.208;-1.518;2022-07-29T01:44:07;42.27;;;39.80;;
31808;SDS011;18379;48.208;-1.518;2022-07-29T01:49:15;45.43;;;42.63;;
31808;SDS011;18379;48.208;-1.518;2022-07-29T01:54:34;46.33;;;42.97;;
31808;SDS011;18379;48.208;-1.518;2022-07-29T01:59:38;43.93;;;41.33;;
31808;SDS011;18379;48.208;-1.518;2022-07-29T02:04:41;45.27;;;42.40;;
31808;SDS011;18379;48.208;-1.518;2022-07-29T02:09:49;45.87;;;42.87;;
31808;SDS011;18379;48.208;-1.518;2022-07-29T02:14:52;48.63;;;45.30;;
31808;SDS011;18379;48.208;-1.518;2022-07-29T02:19:56;45.27;;;42.43;;
31808;SDS011;18379;48.208;-1.518;2022-07-29T02:25:04;42.60;;;40.10;;
31808;SDS011;18379;48.208;-1.518;2022-07-29T02:30:07;42.80;;;40.20;;
31808;SDS011;18379;48.208;-1.518;2022-07-29T02:35:10;43.57;;;40.67;;
31808;SDS011;18379;48.208;-1.518;2022-07-29T02:40:14;45.23;;;42.53;;
31808;SDS011;18379;48.208;-1.518;2022-07-29T02:45:16;45.10;;;42.40;;
31808;SDS011;18379;48.208;-1.518;2022-07-29T02:50:18;45.27;;;42.23;;
31808;SDS011;18379;48.208;-1.518;2022-07-29T02:55:33;45.10;;;42.20;;
31808;SDS011;18379;48.208;-1.518;2022-07-29T03:00:59;51.17;;;47.73;;
31808;SDS011;18379;48.208;-1.518;2022-07-29T03:06:04;42.37;;;39.67;;
31808;SDS011;18379;48.208;-1.518;2022-07-29T03:11:07;42.33;;;40.03;;
31808;SDS011;18379;48.208;-1.518;2022-07-29T03:16:09;42.83;;;40.10;;
31808;SDS011;18379;48.208;-1.518;2022-07-29T03:21:10;42.70;;;40.27;;
31808;SDS011;18379;48.208;-1.518;2022-07-29T03:26:11;42.37;;;40.07;;
31808;SDS011;18379;48.208;-1.518;2022-07-29T03:31:13;44.13;;;41.33;;
31808;SDS011;18379;48.208;-1.518;2022-07-29T03:36:14;44.53;;;41.77;;
31808;SDS011;18379;48.208;-1.518;2022-07-29T03:41:15;43.87;;;41.23;;
31808;SDS011;18379;48.208;-1.518;2022-07-29T03:46:18;44.77;;;41.90;;
31808;SDS011;18379;48.208;-1.518;2022-07-29T03:51:22;44.27;;;41.63;;
31808;SDS011;18379;48.208;-1.518;2022-07-29T03:56:23;46.13;;;42.77;;
31808;SDS011;18379;48.208;-1.518;2022-07-29T04:01:25;43.97;;;41.40;;
31808;SDS011;18379;48.208;-1.518;2022-07-29T04:06:28;43.27;;;40.73;;
31808;SDS011;18379;48.208;-1.518;2022-07-29T04:11:29;42.73;;;40.20;;
31808;SDS011;18379;48.208;-1.518;2022-07-29T04:16:30;42.43;;;39.93;;
31808;SDS011;18379;48.208;-1.518;2022-07-29T04:21:31;41.67;;;39.37;;
31808;SDS011;18379;48.208;-1.518;2022-07-29T04:26:37;42.43;;;39.80;;
31808;SDS011;18379;48.208;-1.518;2022-07-29T04:31:38;42.70;;;39.90;;
31808;SDS011;18379;48.208;-1.518;2022-07-29T04:36:39;42.00;;;39.50;;
31808;SDS011;18379;48.208;-1.518;2022-07-29T04:41:40;42.23;;;39.63;;
31808;SDS011;18379;48.208;-1.518;2022-07-29T04:46:41;42.77;;;40.27;;
31808;SDS011;18379;48.208;-1.518;2022-07-29T04:51:41;43.07;;;40.67;;
31808;SDS011;18379;48.208;-1.518;2022-07-29T04:56:42;43.83;;;41.13;;
31808;SDS011;18379;48.208;-1.518;2022-07-29T05:01:43;44.27;;;41.57;;
31808;SDS011;18379;48.208;-1.518;2022-07-29T05:06:44;44.20;;;41.37;;
31808;SDS011;18379;48.208;-1.518;2022-07-29T05:11:44;44.07;;;41.23;;
31808;SDS011;18379;48.208;-1.518;2022-07-29T05:16:45;44.97;;;42.17;;
31808;SDS011;18379;48.208;-1.518;2022-07-29T05:21:46;44.60;;;41.90;;
31808;SDS011;18379;48.208;-1.518;2022-07-29T05:26:47;44.60;;;41.90;;
31808;SDS011;18379;48.208;-1.518;2022-07-29T05:31:48;44.40;;;41.70;;
31808;SDS011;18379;48.208;-1.518;2022-07-29T05:36:49;43.83;;;41.20;;
31808;SDS011;18379;48.208;-1.518;2022-07-29T05:41:50;44.17;;;41.37;;
31808;SDS011;18379;48.208;-1.518;2022-07-29T05:46:51;44.60;;;42.00;;
31808;SDS011;18379;48.208;-1.518;2022-07-29T05:51:51;52.20;;;48.70;;
31808;SDS011;18379;48.208;-1.518;2022-07-29T05:56:55;44.00;;;41.40;;
31808;SDS011;18379;48.208;-1.518;2022-07-29T06:01:56;51.77;;;48.20;;
31808;SDS011;18379;48.208;-1.518;2022-07-29T06:06:57;44.23;;;41.73;;
31808;SDS011;18379;48.208;-1.518;2022-07-29T06:11:58;44.97;;;42.17;;
31808;SDS011;18379;48.208;-1.518;2022-07-29T06:16:59;42.67;;;40.17;;
31808;SDS011;18379;48.208;-1.518;2022-07-29T06:22:00;43.43;;;40.60;;
31808;SDS011;18379;48.208;-1.518;2022-07-29T06:27:00;43.17;;;40.57;;
31808;SDS011;18379;48.208;-1.518;2022-07-29T06:32:01;43.10;;;40.47;;
31808;SDS011;18379;48.208;-1.518;2022-07-29T06:37:08;42.47;;;40.17;;
31808;SDS011;18379;48.208;-1.518;2022-07-29T06:42:09;43.07;;;40.53;;
31808;SDS011;18379;48.208;-1.518;2022-07-29T06:47:11;46.30;;;43.27;;
31808;SDS011;18379;48.208;-1.518;2022-07-29T06:52:12;48.93;;;45.97;;
31808;SDS011;18379;48.208;-1.518;2022-07-29T06:57:12;51.77;;;48.40;;
31808;SDS011;18379;48.208;-1.518;2022-07-29T07:02:14;52.50;;;49.03;;
31808;SDS011;18379;48.208;-1.518;2022-07-29T07:07:14;54.07;;;50.43;;
31808;SDS011;18379;48.208;-1.518;2022-07-29T07:12:15;54.00;;;50.33;;
31808;SDS011;18379;48.208;-1.518;2022-07-29T07:17:16;54.27;;;50.83;;
31808;SDS011;18379;48.208;-1.518;2022-07-29T07:22:17;53.30;;;49.93;;
31808;SDS011;18379;48.208;-1.518;2022-07-29T07:27:18;53.10;;;49.63;;
31808;SDS011;18379;48.208;-1.518;2022-07-29T07:32:18;53.43;;;50.17;;
31808;SDS011;18379;48.208;-1.518;2022-07-29T07:37:19;54.03;;;50.60;;
31808;SDS011;18379;48.208;-1.518;2022-07-29T07:42:20;53.80;;;50.43;;
31808;SDS011;18379;48.208;-1.518;2022-07-29T07:47:21;54.93;;;51.37;;
31808;SDS011;18379;48.208;-1.518;2022-07-29T07:52:23;55.23;;;51.70;;
31808;SDS011;18379;48.208;-1.518;2022-07-29T07:57:24;53.50;;;50.23;;
31808;SDS011;18379;48.208;-1.518;2022-07-29T08:02:25;53.50;;;49.77;;
31808;SDS011;18379;48.208;-1.518;2022-07-29T08:07:25;55.43;;;51.97;;
31808;SDS011;18379;48.208;-1.518;2022-07-29T08:12:26;54.70;;;51.23;;
31808;SDS011;18379;48.208;-1.518;2022-07-29T08:17:27;54.80;;;51.40;;
31808;SDS011;18379;48.208;-1.518;2022-07-29T08:22:29;50.57;;;47.43;;
31808;SDS011;18379;48.208;-1.518;2022-07-29T08:27:29;47.83;;;44.83;;
31808;SDS011;18379;48.208;-1.518;2022-07-29T08:32:32;45.50;;;42.13;;
31808;SDS011;18379;48.208;-1.518;2022-07-29T08:37:33;45.30;;;42.60;;
31808;SDS011;18379;48.208;-1.518;2022-07-29T08:42:34;44.47;;;41.87;;
31808;SDS011;18379;48.208;-1.518;2022-07-29T08:47:35;45.07;;;42.47;;
31808;SDS011;18379;48.208;-1.518;2022-07-29T08:52:42;48.67;;;45.30;;
31808;SDS011;18379;48.208;-1.518;2022-07-29T08:57:43;52.57;;;48.70;;
31808;SDS011;18379;48.208;-1.518;2022-07-29T09:02:45;54.00;;;50.60;;
31808;SDS011;18379;48.208;-1.518;2022-07-29T09:07:51;54.13;;;50.73;;
31808;SDS011;18379;48.208;-1.518;2022-07-29T09:12:54;54.97;;;51.63;;
31808;SDS011;18379;48.208;-1.518;2022-07-29T09:17:55;55.30;;;51.60;;
31808;SDS011;18379;48.208;-1.518;2022-07-29T09:23:07;56.20;;;52.70;;
31808;SDS011;18379;48.208;-1.518;2022-07-29T09:28:12;45.67;;;42.80;;
31808;SDS011;18379;48.208;-1.518;2022-07-29T09:33:14;55.47;;;52.03;;
31808;SDS011;18379;48.208;-1.518;2022-07-29T09:38:15;54.75;;;51.22;;
31808;SDS011;18379;48.208;-1.518;2022-07-29T09:43:16;54.13;;;50.60;;
31808;SDS011;18379;48.208;-1.518;2022-07-29T09:48:19;55.63;;;52.05;;
31808;SDS011;18379;48.208;-1.518;2022-07-29T09:53:35;56.80;;;53.17;;
31808;SDS011;18379;48.208;-1.518;2022-07-29T09:58:36;45.47;;;42.88;;
31808;SDS011;18379;48.208;-1.518;2022-07-29T10:03:50;46.63;;;43.53;;
31808;SDS011;18379;48.208;-1.518;2022-07-29T10:08:52;56.17;;;52.75;;
31808;SDS011;18379;48.208;-1.518;2022-07-29T10:13:53;56.30;;;52.97;;
31808;SDS011;18379;48.208;-1.518;2022-07-29T10:18:54;54.92;;;51.60;;
31808;SDS011;18379;48.208;-1.518;2022-07-29T10:23:55;57.20;;;53.28;;
31808;SDS011;18379;48.208;-1.518;2022-07-29T10:28:58;57.40;;;53.40;;
31808;SDS011;18379;48.208;-1.518;2022-07-29T10:34:06;55.80;;;52.35;;
31808;SDS011;18379;48.208;-1.518;2022-07-29T10:44:29;56.60;;;53.17;;
31808;SDS011;18379;48.208;-1.518;2022-07-29T10:49:31;52.58;;;49.40;;
31808;SDS011;18379;48.208;-1.518;2022-07-29T10:59:35;47.05;;;44.25;;
31808;SDS011;18379;48.208;-1.518;2022-07-29T11:10:19;53.08;;;49.67;;
31808;SDS011;18379;48.208;-1.518;2022-07-29T11:15:14;46.97;;;43.88;;
31808;SDS011;18379;48.208;-1.518;2022-07-29T11:25:45;48.97;;;45.72;;
31808;SDS011;18379;48.208;-1.518;2022-07-29T11:31:07;46.97;;;44.25;;
31808;SDS011;18379;48.208;-1.518;2022-07-29T11:36:11;46.83;;;44.03;;
31808;SDS011;18379;48.208;-1.518;2022-07-29T11:46:45;55.90;;;52.47;;
31808;SDS011;18379;48.208;-1.518;2022-07-29T11:51:59;55.72;;;52.40;;
31808;SDS011;18379;48.208;-1.518;2022-07-29T11:57:01;54.25;;;50.47;;
31808;SDS011;18379;48.208;-1.518;2022-07-29T12:02:01;50.85;;;47.85;;
31808;SDS011;18379;48.208;-1.518;2022-07-29T12:07:03;48.67;;;45.78;;
31808;SDS011;18379;48.208;-1.518;2022-07-29T12:12:04;47.90;;;44.90;;
31808;SDS011;18379;48.208;-1.518;2022-07-29T12:17:05;47.40;;;44.67;;
31808;SDS011;18379;48.208;-1.518;2022-07-29T12:22:06;47.47;;;44.58;;
31808;SDS011;18379;48.208;-1.518;2022-07-29T12:27:07;47.17;;;44.38;;
31808;SDS011;18379;48.208;-1.518;2022-07-29T12:32:07;48.05;;;44.92;;
31808;SDS011;18379;48.208;-1.518;2022-07-29T12:37:10;46.72;;;44.03;;
31808;SDS011;18379;48.208;-1.518;2022-07-29T12:42:14;47.63;;;44.83;;
31808;SDS011;18379;48.208;-1.518;2022-07-29T12:47:15;49.88;;;46.72;;
31808;SDS011;18379;48.208;-1.518;2022-07-29T12:52:27;54.45;;;51.20;;
31808;SDS011;18379;48.208;-1.518;2022-07-29T12:57:30;56.55;;;52.83;;
31808;SDS011;18379;48.208;-1.518;2022-07-29T13:02:31;56.50;;;52.80;;
31808;SDS011;18379;48.208;-1.518;2022-07-29T13:07:32;51.30;;;48.00;;
31808;SDS011;18379;48.208;-1.518;2022-07-29T13:12:36;48.00;;;45.20;;
31808;SDS011;18379;48.208;-1.518;2022-07-29T13:17:42;47.95;;;45.33;;
31808;SDS011;18379;48.208;-1.518;2022-07-29T13:22:46;47.70;;;45.03;;
31808;SDS011;18379;48.208;-1.518;2022-07-29T13:27:48;55.38;;;52.08;;
31808;SDS011;18379;48.208;-1.518;2022-07-29T13:32:50;56.40;;;53.15;;
31808;SDS011;18379;48.208;-1.518;2022-07-29T13:37:52;57.05;;;53.72;;
31808;SDS011;18379;48.208;-1.518;2022-07-29T13:42:53;57.03;;;53.67;;
31808;SDS011;18379;48.208;-1.518;2022-07-29T13:47:54;57.53;;;53.83;;
31808;SDS011;18379;48.208;-1.518;2022-07-29T13:52:54;56.42;;;53.08;;
31808;SDS011;18379;48.208;-1.518;2022-07-29T13:57:55;56.25;;;52.83;;
31808;SDS011;18379;48.208;-1.518;2022-07-29T14:02:56;55.80;;;52.60;;
31808;SDS011;18379;48.208;-1.518;2022-07-29T14:07:57;56.70;;;53.35;;
31808;SDS011;18379;48.208;-1.518;2022-07-29T14:12:58;56.50;;;52.97;;
31808;SDS011;18379;48.208;-1.518;2022-07-29T14:17:59;48.47;;;45.38;;
31808;SDS011;18379;48.208;-1.518;2022-07-29T14:22:59;50.45;;;47.55;;
31808;SDS011;18379;48.208;-1.518;2022-07-29T14:28:00;50.42;;;47.25;;
31808;SDS011;18379;48.208;-1.518;2022-07-29T14:33:01;49.70;;;46.70;;
31808;SDS011;18379;48.208;-1.518;2022-07-29T14:38:05;47.95;;;44.95;;
31808;SDS011;18379;48.208;-1.518;2022-07-29T14:43:08;49.10;;;45.72;;
31808;SDS011;18379;48.208;-1.518;2022-07-29T14:48:13;47.83;;;44.95;;
31808;SDS011;18379;48.208;-1.518;2022-07-29T14:53:18;51.30;;;48.33;;
31808;SDS011;18379;48.208;-1.518;2022-07-29T14:58:19;49.75;;;46.78;;
31808;SDS011;18379;48.208;-1.518;2022-07-29T15:03:22;53.80;;;50.30;;
31808;SDS011;18379;48.208;-1.518;2022-07-29T15:08:24;54.13;;;51.00;;
31808;SDS011;18379;48.208;-1.518;2022-07-29T15:13:28;52.78;;;49.58;;
31808;SDS011;18379;48.208;-1.518;2022-07-29T15:18:33;51.88;;;48.70;;
31808;SDS011;18379;48.208;-1.518;2022-07-29T15:23:34;48.15;;;45.35;;
31808;SDS011;18379;48.208;-1.518;2022-07-29T15:28:38;48.30;;;45.33;;
31808;SDS011;18379;48.208;-1.518;2022-07-29T15:33:40;47.78;;;44.78;;
31808;SDS011;18379;48.208;-1.518;2022-07-29T15:38:41;47.88;;;44.75;;
31808;SDS011;18379;48.208;-1.518;2022-07-29T15:43:45;46.92;;;44.28;;
31808;SDS011;18379;48.208;-1.518;2022-07-29T15:48:50;49.00;;;46.03;;
31808;SDS011;18379;48.208;-1.518;2022-07-29T15:53:51;49.45;;;46.45;;
31808;SDS011;18379;48.208;-1.518;2022-07-29T15:58:52;49.15;;;46.20;;
31808;SDS011;18379;48.208;-1.518;2022-07-29T16:03:53;48.70;;;45.78;;
31808;SDS011;18379;48.208;-1.518;2022-07-29T16:09:16;47.40;;;44.40;;
31808;SDS011;18379;48.208;-1.518;2022-07-29T16:14:24;48.17;;;45.33;;
31808;SDS011;18379;48.208;-1.518;2022-07-29T16:19:29;52.83;;;49.30;;
31808;SDS011;18379;48.208;-1.518;2022-07-29T16:24:30;50.42;;;46.97;;
31808;SDS011;18379;48.208;-1.518;2022-07-29T16:29:32;51.47;;;47.72;;
31808;SDS011;18379;48.208;-1.518;2022-07-29T16:34:36;48.03;;;44.85;;
31808;SDS011;18379;48.208;-1.518;2022-07-29T16:39:37;47.97;;;44.72;;
31808;SDS011;18379;48.208;-1.518;2022-07-29T16:44:38;47.65;;;44.75;;
31808;SDS011;18379;48.208;-1.518;2022-07-29T16:49:39;47.35;;;44.58;;
31808;SDS011;18379;48.208;-1.518;2022-07-29T16:54:43;48.67;;;45.67;;
31808;SDS011;18379;48.208;-1.518;2022-07-29T16:59:44;47.42;;;44.38;;
31808;SDS011;18379;48.208;-1.518;2022-07-29T17:04:54;48.42;;;45.53;;
31808;SDS011;18379;48.208;-1.518;2022-07-29T17:09:55;49.53;;;46.63;;
31808;SDS011;18379;48.208;-1.518;2022-07-29T17:14:57;49.40;;;46.05;;
31808;SDS011;18379;48.208;-1.518;2022-07-29T17:19:58;48.67;;;45.78;;
31808;SDS011;18379;48.208;-1.518;2022-07-29T17:24:59;48.30;;;45.28;;
31808;SDS011;18379;48.208;-1.518;2022-07-29T17:30:00;46.83;;;43.92;;
31808;SDS011;18379;48.208;-1.518;2022-07-29T17:35:01;48.25;;;45.10;;
31808;SDS011;18379;48.208;-1.518;2022-07-29T17:40:02;49.15;;;45.92;;
31808;SDS011;18379;48.208;-1.518;2022-07-29T17:45:04;47.38;;;44.42;;
31808;SDS011;18379;48.208;-1.518;2022-07-29T17:50:05;46.20;;;43.60;;
31808;SDS011;18379;48.208;-1.518;2022-07-29T17:55:07;45.25;;;42.75;;
31808;SDS011;18379;48.208;-1.518;2022-07-29T18:00:09;46.42;;;43.35;;
31808;SDS011;18379;48.208;-1.518;2022-07-29T18:05:10;45.30;;;42.70;;
31808;SDS011;18379;48.208;-1.518;2022-07-29T18:10:12;45.47;;;42.78;;
31808;SDS011;18379;48.208;-1.518;2022-07-29T18:15:13;45.42;;;42.72;;
31808;SDS011;18379;48.208;-1.518;2022-07-29T18:20:23;46.17;;;43.58;;
31808;SDS011;18379;48.208;-1.518;2022-07-29T18:25:26;47.42;;;44.70;;
31808;SDS011;18379;48.208;-1.518;2022-07-29T18:30:29;47.20;;;44.40;;
31808;SDS011;18379;48.208;-1.518;2022-07-29T18:35:37;45.77;;;43.13;;
31808;SDS011;18379;48.208;-1.518;2022-07-29T18:40:44;45.93;;;43.23;;
31808;SDS011;18379;48.208;-1.518;2022-07-29T18:45:45;45.67;;;42.97;;
31808;SDS011;18379;48.208;-1.518;2022-07-29T18:50:48;45.77;;;43.03;;
31808;SDS011;18379;48.208;-1.518;2022-07-29T18:55:49;47.20;;;44.27;;
31808;SDS011;18379;48.208;-1.518;2022-07-29T19:00:50;47.60;;;44.80;;
31808;SDS011;18379;48.208;-1.518;2022-07-29T19:05:51;46.77;;;44.07;;
31808;SDS011;18379;48.208;-1.518;2022-07-29T19:10:52;47.20;;;44.40;;
31808;SDS011;18379;48.208;-1.518;2022-07-29T19:15:53;47.63;;;44.77;;
31808;SDS011;18379;48.208;-1.518;2022-07-29T19:20:54;47.33;;;44.50;;
31808;SDS011;18379;48.208;-1.518;2022-07-29T19:25:54;46.60;;;43.90;;
31808;SDS011;18379;48.208;-1.518;2022-07-29T19:30:56;48.77;;;45.70;;
31808;SDS011;18379;48.208;-1.518;2022-07-29T19:35:56;48.70;;;45.70;;
31808;SDS011;18379;48.208;-1.518;2022-07-29T19:40:57;47.90;;;44.50;;
31808;SDS011;18379;48.208;-1.518;2022-07-29T19:45:58;49.27;;;46.20;;
31808;SDS011;18379;48.208;-1.518;2022-07-29T19:50:59;47.57;;;44.57;;
31808;SDS011;18379;48.208;-1.518;2022-07-29T19:56:00;47.40;;;44.60;;
31808;SDS011;18379;48.208;-1.518;2022-07-29T20:01:01;47.10;;;44.07;;
31808;SDS011;18379;48.208;-1.518;2022-07-29T20:06:02;47.50;;;44.50;;
31808;SDS011;18379;48.208;-1.518;2022-07-29T20:11:02;47.00;;;44.00;;
31808;SDS011;18379;48.208;-1.518;2022-07-29T20:16:04;47.70;;;44.80;;
31808;SDS011;18379;48.208;-1.518;2022-07-29T20:21:07;45.33;;;42.80;;
31808;SDS011;18379;48.208;-1.518;2022-07-29T20:26:07;46.00;;;43.03;;
31808;SDS011;18379;48.208;-1.518;2022-07-29T20:31:09;45.37;;;42.57;;
31808;SDS011;18379;48.208;-1.518;2022-07-29T20:36:10;44.67;;;42.00;;
31808;SDS011;18379;48.208;-1.518;2022-07-29T20:41:10;44.20;;;41.70;;
31808;SDS011;18379;48.208;-1.518;2022-07-29T20:46:11;51.33;;;48.17;;
31808;SDS011;18379;48.208;-1.518;2022-07-29T20:51:12;45.07;;;42.37;;
31808;SDS011;18379;48.208;-1.518;2022-07-29T20:56:13;44.97;;;42.27;;
31808;SDS011;18379;48.208;-1.518;2022-07-29T21:01:14;44.33;;;41.50;;
31808;SDS011;18379;48.208;-1.518;2022-07-29T21:06:15;44.97;;;41.97;;
31808;SDS011;18379;48.208;-1.518;2022-07-29T21:11:17;44.97;;;42.27;;
31808;SDS011;18379;48.208;-1.518;2022-07-29T21:16:18;44.33;;;41.77;;
31808;SDS011;18379;48.208;-1.518;2022-07-29T21:21:19;45.40;;;42.47;;
31808;SDS011;18379;48.208;-1.518;2022-07-29T21:26:20;46.03;;;42.97;;
31808;SDS011;18379;48.208;-1.518;2022-07-29T21:31:22;47.23;;;44.33;;
31808;SDS011;18379;48.208;-1.518;2022-07-29T21:36:27;47.90;;;45.00;;
31808;SDS011;18379;48.208;-1.518;2022-07-29T21:41:28;47.47;;;44.27;;
31808;SDS011;18379;48.208;-1.518;2022-07-29T21:46:28;48.43;;;45.33;;
31808;SDS011;18379;48.208;-1.518;2022-07-29T21:51:29;46.97;;;44.03;;
31808;SDS011;18379;48.208;-1.518;2022-07-29T21:56:30;48.30;;;45.00;;
31808;SDS011;18379;48.208;-1.518;2022-07-29T22:01:31;47.73;;;44.60;;
31808;SDS011;18379;48.208;-1.518;2022-07-29T22:06:31;47.57;;;44.37;;
31808;SDS011;18379;48.208;-1.518;2022-07-29T22:11:33;46.87;;;43.67;;
31808;SDS011;18379;48.208;-1.518;2022-07-29T22:16:35;48.13;;;44.83;;
31808;SDS011;18379;48.208;-1.518;2022-07-29T22:21:36;47.23;;;44.33;;
31808;SDS011;18379;48.208;-1.518;2022-07-29T22:26:38;45.10;;;42.30;;
31808;SDS011;18379;48.208;-1.518;2022-07-29T22:31:38;44.87;;;42.07;;
31808;SDS011;18379;48.208;-1.518;2022-07-29T22:36:39;45.30;;;42.17;;
31808;SDS011;18379;48.208;-1.518;2022-07-29T22:41:40;44.77;;;42.13;;
31808;SDS011;18379;48.208;-1.518;2022-07-29T22:46:41;45.00;;;42.20;;
31808;SDS011;18379;48.208;-1.518;2022-07-29T22:51:42;46.27;;;43.00;;
31808;SDS011;18379;48.208;-1.518;2022-07-29T22:56:43;45.97;;;42.77;;
31808;SDS011;18379;48.208;-1.518;2022-07-29T23:01:43;45.80;;;43.07;;
31808;SDS011;18379;48.208;-1.518;2022-07-29T23:06:44;46.17;;;43.27;;
31808;SDS011;18379;48.208;-1.518;2022-07-29T23:11:45;46.17;;;43.07;;
31808;SDS011;18379;48.208;-1.518;2022-07-29T23:16:46;46.10;;;43.27;;
31808;SDS011;18379;48.208;-1.518;2022-07-29T23:21:47;46.90;;;43.70;;
31808;SDS011;18379;48.208;-1.518;2022-07-29T23:26:47;46.63;;;43.63;;
31808;SDS011;18379;48.208;-1.518;2022-07-29T23:31:48;47.73;;;44.43;;
31808;SDS011;18379;48.208;-1.518;2022-07-29T23:36:49;48.07;;;44.77;;
31808;SDS011;18379;48.208;-1.518;2022-07-29T23:41:50;49.17;;;45.83;;
31808;SDS011;18379;48.208;-1.518;2022-07-29T23:46:50;50.53;;;46.93;;
31808;SDS011;18379;48.208;-1.518;2022-07-29T23:51:51;49.67;;;46.50;;
31808;SDS011;18379;48.208;-1.518;2022-07-29T23:56:52;50.10;;;46.67;;
